Sturgis, SD

10:59 PM MDT on September 22, 2014 (GMT -0600)
Rapid City | Change Station
CLOSE
Current Station
Airport
Location: Rapid City,
Elevation: 3166 ft
Nearby Weather Stations

Elev 3166 ft 44.05 °N, 103.06 °W | Updated 7 minutes ago

Overcast
Overcast
60 °F
Feels Like 60 °F
N
0
Wind Variable Wind from North

Today
High -- | Low -- °F
--% Chance of Precip.
Yesterday
High -- | Low -- °F
Precip. -- in
6:40 AM 6:51 PM
Waning Crescent, 1% visible
Pressure 29.89 in
Visibility 10.0 miles
Clouds Clear
Dew Point 54 °F
Humidity 80%
Rainfall 0.01 in
Snow Depth 0 in
UV 0 out of 12
Pollen 5.60 out of 12
Air Quality Not available.
Flu Activity Not available.
METAR KRAP 230452Z AUTO 00000KT 10SM CLR 16/12 A2994 RMK AO2 SLP120 T01560122

More Conditions Fewer Conditions

Pressure 29.89 in
Visibility 10.0 miles
Clouds Clear
Dew Point 54 °F
Humidity 80%
Rainfall 0.01 in
Snow Depth 0 in
UV 0 out of 12
Pollen 5.60 out of 12
Air Quality Not available.
Flu Activity Not available.
METAR KRAP 230452Z AUTO 00000KT 10SM CLR 16/12 A2994 RMK AO2 SLP120 T01560122

More Conditions Fewer Conditions

10-Day Weather Forecast

Almanac

Astronomy

Sep. 22, 2014 Rise Set
Actual Time 6:40 AM MDT 6:51 PM MDT
Civil Twilight 6:11 AM MDT 7:20 PM MDT
Nautical Twilight 5:37 AM MDT 7:54 PM MDT
Astronomical Twilight 5:02 AM MDT 8:28 PM MDT
Moon 5:09 AM MDT (9/22) 6:01 PM MDT (9/22)
Length of Visible Light 13h 08m
Length of Day
12h 10m
Tomorrow will be 3m 3s shorter.
Waning Crescent, 1% of the Moon is Illuminated
Sep 23
Waning Crescent
Sep 24
New
Oct 1
First Quarter
Oct 8
Full
Oct 15
Last Quarter

Yesterday's Extremes

State Highs State Lows

Community

WunderPhotos

Upload Photos

1,755,611 photos uploaded!

Nearby

Snow Depth

Station Depth Elevation
Blind Park 0 in 6890 ft

Earthquake Activity

City Distance Mag. Time & Date
No recent earthquake activity has been reported nearby.
Minimum magnitude displayed is 2.5.

Coastal Water Temperatures

Place Temperature
No Stations Reporting

Nearby Weather Stations